sensor_id;sensor_type;location;lat;lon;timestamp;P1;durP1;ratioP1;P2;durP2;ratioP2
10335;SDS011;5213;53.548;9.930;2024-01-30T00:01:12;11.32;;;8.82;;
10335;SDS011;5213;53.548;9.930;2024-01-30T00:03:38;9.88;;;8.88;;
10335;SDS011;5213;53.548;9.930;2024-01-30T00:06:03;13.00;;;9.30;;
10335;SDS011;5213;53.548;9.930;2024-01-30T00:08:29;10.90;;;9.18;;
10335;SDS011;5213;53.548;9.930;2024-01-30T00:10:54;9.90;;;8.88;;
10335;SDS011;5213;53.548;9.930;2024-01-30T00:13:20;10.70;;;8.93;;
10335;SDS011;5213;53.548;9.930;2024-01-30T00:15:46;11.25;;;8.77;;
10335;SDS011;5213;53.548;9.930;2024-01-30T00:18:11;11.02;;;9.10;;
10335;SDS011;5213;53.548;9.930;2024-01-30T00:20:37;10.32;;;9.23;;
10335;SDS011;5213;53.548;9.930;2024-01-30T00:23:03;10.48;;;9.40;;
10335;SDS011;5213;53.548;9.930;2024-01-30T00:25:28;10.30;;;9.13;;
10335;SDS011;5213;53.548;9.930;2024-01-30T00:27:54;10.95;;;9.07;;
10335;SDS011;5213;53.548;9.930;2024-01-30T00:30:20;10.25;;;8.80;;
10335;SDS011;5213;53.548;9.930;2024-01-30T00:32:45;11.32;;;9.32;;
10335;SDS011;5213;53.548;9.930;2024-01-30T00:35:11;11.50;;;9.00;;
10335;SDS011;5213;53.548;9.930;2024-01-30T00:37:37;10.43;;;9.27;;
10335;SDS011;5213;53.548;9.930;2024-01-30T00:40:02;9.60;;;8.60;;
10335;SDS011;5213;53.548;9.930;2024-01-30T00:42:28;10.65;;;9.00;;
10335;SDS011;5213;53.548;9.930;2024-01-30T00:44:54;10.27;;;8.70;;
10335;SDS011;5213;53.548;9.930;2024-01-30T00:47:20;9.45;;;8.45;;
10335;SDS011;5213;53.548;9.930;2024-01-30T00:49:45;10.32;;;8.15;;
10335;SDS011;5213;53.548;9.930;2024-01-30T00:52:11;10.02;;;7.75;;
10335;SDS011;5213;53.548;9.930;2024-01-30T00:54:37;10.30;;;8.18;;
10335;SDS011;5213;53.548;9.930;2024-01-30T00:57:02;10.38;;;8.40;;
10335;SDS011;5213;53.548;9.930;2024-01-30T00:59:28;14.35;;;8.80;;
10335;SDS011;5213;53.548;9.930;2024-01-30T01:01:54;9.85;;;8.68;;
10335;SDS011;5213;53.548;9.930;2024-01-30T01:04:19;9.93;;;8.40;;
10335;SDS011;5213;53.548;9.930;2024-01-30T01:06:46;9.05;;;8.15;;
10335;SDS011;5213;53.548;9.930;2024-01-30T01:09:12;8.35;;;7.45;;
10335;SDS011;5213;53.548;9.930;2024-01-30T01:11:38;8.85;;;7.90;;
10335;SDS011;5213;53.548;9.930;2024-01-30T01:14:03;8.90;;;8.00;;
10335;SDS011;5213;53.548;9.930;2024-01-30T01:16:29;10.93;;;7.95;;
10335;SDS011;5213;53.548;9.930;2024-01-30T01:18:55;9.02;;;7.55;;
10335;SDS011;5213;53.548;9.930;2024-01-30T01:21:21;8.98;;;7.55;;
10335;SDS011;5213;53.548;9.930;2024-01-30T01:23:48;10.55;;;7.88;;
10335;SDS011;5213;53.548;9.930;2024-01-30T01:26:13;9.52;;;8.27;;
10335;SDS011;5213;53.548;9.930;2024-01-30T01:28:40;9.25;;;7.80;;
10335;SDS011;5213;53.548;9.930;2024-01-30T01:31:06;9.07;;;8.18;;
10335;SDS011;5213;53.548;9.930;2024-01-30T01:33:32;8.38;;;7.28;;
10335;SDS011;5213;53.548;9.930;2024-01-30T01:35:58;8.63;;;7.60;;
10335;SDS011;5213;53.548;9.930;2024-01-30T01:38:24;9.75;;;7.72;;
10335;SDS011;5213;53.548;9.930;2024-01-30T01:40:50;11.30;;;7.68;;
10335;SDS011;5213;53.548;9.930;2024-01-30T01:43:16;8.95;;;7.72;;
10335;SDS011;5213;53.548;9.930;2024-01-30T01:45:42;8.00;;;7.18;;
10335;SDS011;5213;53.548;9.930;2024-01-30T01:48:07;8.98;;;7.28;;
10335;SDS011;5213;53.548;9.930;2024-01-30T01:50:34;8.70;;;7.03;;
10335;SDS011;5213;53.548;9.930;2024-01-30T01:53:00;10.15;;;7.40;;
10335;SDS011;5213;53.548;9.930;2024-01-30T01:55:28;11.23;;;7.80;;
10335;SDS011;5213;53.548;9.930;2024-01-30T01:57:55;8.00;;;7.20;;
10335;SDS011;5213;53.548;9.930;2024-01-30T02:00:22;8.98;;;7.07;;
10335;SDS011;5213;53.548;9.930;2024-01-30T02:02:48;9.35;;;7.00;;
10335;SDS011;5213;53.548;9.930;2024-01-30T02:05:15;9.25;;;7.60;;
10335;SDS011;5213;53.548;9.930;2024-01-30T02:07:41;8.02;;;7.22;;
10335;SDS011;5213;53.548;9.930;2024-01-30T02:10:08;9.25;;;6.85;;
10335;SDS011;5213;53.548;9.930;2024-01-30T02:12:37;9.25;;;7.07;;
10335;SDS011;5213;53.548;9.930;2024-01-30T02:15:03;8.63;;;7.00;;
10335;SDS011;5213;53.548;9.930;2024-01-30T02:17:30;10.00;;;7.68;;
10335;SDS011;5213;53.548;9.930;2024-01-30T02:19:55;7.88;;;6.68;;
10335;SDS011;5213;53.548;9.930;2024-01-30T02:22:21;7.82;;;6.95;;
10335;SDS011;5213;53.548;9.930;2024-01-30T02:24:48;7.95;;;7.03;;
10335;SDS011;5213;53.548;9.930;2024-01-30T02:27:14;9.70;;;7.38;;
10335;SDS011;5213;53.548;9.930;2024-01-30T02:29:40;8.07;;;6.85;;
10335;SDS011;5213;53.548;9.930;2024-01-30T02:32:06;8.13;;;6.30;;
10335;SDS011;5213;53.548;9.930;2024-01-30T02:34:32;8.73;;;6.95;;
10335;SDS011;5213;53.548;9.930;2024-01-30T02:36:58;8.80;;;7.07;;
10335;SDS011;5213;53.548;9.930;2024-01-30T02:39:24;7.80;;;6.97;;
10335;SDS011;5213;53.548;9.930;2024-01-30T02:41:49;8.45;;;6.88;;
10335;SDS011;5213;53.548;9.930;2024-01-30T02:44:15;8.38;;;7.13;;
10335;SDS011;5213;53.548;9.930;2024-01-30T02:46:40;8.48;;;6.93;;
10335;SDS011;5213;53.548;9.930;2024-01-30T02:49:06;9.10;;;7.28;;
10335;SDS011;5213;53.548;9.930;2024-01-30T02:51:32;8.23;;;7.25;;
10335;SDS011;5213;53.548;9.930;2024-01-30T02:53:57;8.15;;;7.20;;
10335;SDS011;5213;53.548;9.930;2024-01-30T02:56:23;9.00;;;7.70;;
10335;SDS011;5213;53.548;9.930;2024-01-30T02:58:48;8.02;;;7.20;;
10335;SDS011;5213;53.548;9.930;2024-01-30T03:01:14;8.40;;;7.18;;
10335;SDS011;5213;53.548;9.930;2024-01-30T03:03:39;8.10;;;7.20;;
10335;SDS011;5213;53.548;9.930;2024-01-30T03:06:05;10.15;;;7.75;;
10335;SDS011;5213;53.548;9.930;2024-01-30T03:08:32;10.07;;;7.50;;
10335;SDS011;5213;53.548;9.930;2024-01-30T03:10:59;8.40;;;7.50;;
10335;SDS011;5213;53.548;9.930;2024-01-30T03:13:25;8.40;;;7.57;;
10335;SDS011;5213;53.548;9.930;2024-01-30T03:15:51;8.20;;;6.90;;
10335;SDS011;5213;53.548;9.930;2024-01-30T03:18:17;8.68;;;7.28;;
10335;SDS011;5213;53.548;9.930;2024-01-30T03:20:43;8.63;;;7.40;;
10335;SDS011;5213;53.548;9.930;2024-01-30T03:23:08;10.95;;;8.38;;
10335;SDS011;5213;53.548;9.930;2024-01-30T03:25:34;9.30;;;8.00;;
10335;SDS011;5213;53.548;9.930;2024-01-30T03:27:59;8.30;;;7.35;;
10335;SDS011;5213;53.548;9.930;2024-01-30T03:30:25;10.02;;;7.57;;
10335;SDS011;5213;53.548;9.930;2024-01-30T03:32:51;8.27;;;7.35;;
10335;SDS011;5213;53.548;9.930;2024-01-30T03:35:18;9.23;;;7.82;;
10335;SDS011;5213;53.548;9.930;2024-01-30T03:37:44;9.55;;;7.90;;
10335;SDS011;5213;53.548;9.930;2024-01-30T03:40:09;8.32;;;7.40;;
10335;SDS011;5213;53.548;9.930;2024-01-30T03:42:35;8.80;;;7.90;;
10335;SDS011;5213;53.548;9.930;2024-01-30T03:45:01;9.85;;;8.00;;
10335;SDS011;5213;53.548;9.930;2024-01-30T03:47:27;11.18;;;8.07;;
10335;SDS011;5213;53.548;9.930;2024-01-30T03:49:53;9.00;;;7.68;;
10335;SDS011;5213;53.548;9.930;2024-01-30T03:52:18;9.13;;;8.10;;
10335;SDS011;5213;53.548;9.930;2024-01-30T03:54:44;10.43;;;8.45;;
10335;SDS011;5213;53.548;9.930;2024-01-30T03:57:09;10.77;;;8.40;;
10335;SDS011;5213;53.548;9.930;2024-01-30T03:59:35;9.85;;;7.80;;
10335;SDS011;5213;53.548;9.930;2024-01-30T04:02:01;9.82;;;7.68;;
10335;SDS011;5213;53.548;9.930;2024-01-30T04:04:26;9.52;;;7.90;;
10335;SDS011;5213;53.548;9.930;2024-01-30T04:06:52;8.98;;;7.55;;
10335;SDS011;5213;53.548;9.930;2024-01-30T04:09:17;9.25;;;8.20;;
10335;SDS011;5213;53.548;9.930;2024-01-30T04:11:43;9.80;;;8.20;;
10335;SDS011;5213;53.548;9.930;2024-01-30T04:14:09;9.15;;;8.25;;
10335;SDS011;5213;53.548;9.930;2024-01-30T04:16:35;10.35;;;8.35;;
10335;SDS011;5213;53.548;9.930;2024-01-30T04:19:01;11.05;;;8.32;;
10335;SDS011;5213;53.548;9.930;2024-01-30T04:21:27;11.38;;;9.02;;
10335;SDS011;5213;53.548;9.930;2024-01-30T04:23:52;12.02;;;9.02;;
10335;SDS011;5213;53.548;9.930;2024-01-30T04:26:18;9.77;;;8.77;;
10335;SDS011;5213;53.548;9.930;2024-01-30T04:28:44;11.15;;;8.18;;
10335;SDS011;5213;53.548;9.930;2024-01-30T04:31:10;10.52;;;8.35;;
10335;SDS011;5213;53.548;9.930;2024-01-30T04:33:36;9.27;;;8.32;;
10335;SDS011;5213;53.548;9.930;2024-01-30T04:36:02;9.30;;;8.40;;
10335;SDS011;5213;53.548;9.930;2024-01-30T04:38:28;10.68;;;9.20;;
10335;SDS011;5213;53.548;9.930;2024-01-30T04:40:54;12.57;;;9.48;;
10335;SDS011;5213;53.548;9.930;2024-01-30T04:43:19;12.68;;;8.82;;
10335;SDS011;5213;53.548;9.930;2024-01-30T04:45:45;9.98;;;8.93;;
10335;SDS011;5213;53.548;9.930;2024-01-30T04:48:11;11.82;;;9.45;;
10335;SDS011;5213;53.548;9.930;2024-01-30T04:50:36;12.32;;;9.32;;
10335;SDS011;5213;53.548;9.930;2024-01-30T04:53:02;11.32;;;9.35;;
10335;SDS011;5213;53.548;9.930;2024-01-30T04:55:28;10.25;;;8.93;;
10335;SDS011;5213;53.548;9.930;2024-01-30T04:57:53;10.35;;;8.93;;
10335;SDS011;5213;53.548;9.930;2024-01-30T05:00:19;10.10;;;8.98;;
10335;SDS011;5213;53.548;9.930;2024-01-30T05:02:44;10.18;;;9.15;;
10335;SDS011;5213;53.548;9.930;2024-01-30T05:05:10;11.90;;;9.80;;
10335;SDS011;5213;53.548;9.930;2024-01-30T05:07:36;10.00;;;9.00;;
10335;SDS011;5213;53.548;9.930;2024-01-30T05:10:02;10.50;;;9.25;;
10335;SDS011;5213;53.548;9.930;2024-01-30T05:12:28;10.73;;;9.40;;
10335;SDS011;5213;53.548;9.930;2024-01-30T05:14:54;11.57;;;9.95;;
10335;SDS011;5213;53.548;9.930;2024-01-30T05:17:19;12.05;;;9.82;;
10335;SDS011;5213;53.548;9.930;2024-01-30T05:19:45;14.73;;;9.68;;
10335;SDS011;5213;53.548;9.930;2024-01-30T05:22:10;12.88;;;9.45;;
10335;SDS011;5213;53.548;9.930;2024-01-30T05:24:40;11.05;;;9.30;;
10335;SDS011;5213;53.548;9.930;2024-01-30T05:27:07;11.98;;;9.52;;
10335;SDS011;5213;53.548;9.930;2024-01-30T05:29:33;11.43;;;9.73;;
10335;SDS011;5213;53.548;9.930;2024-01-30T05:31:58;11.07;;;9.63;;
10335;SDS011;5213;53.548;9.930;2024-01-30T05:34:24;12.38;;;9.70;;
10335;SDS011;5213;53.548;9.930;2024-01-30T05:36:49;12.15;;;9.65;;
10335;SDS011;5213;53.548;9.930;2024-01-30T05:39:15;12.38;;;9.88;;
10335;SDS011;5213;53.548;9.930;2024-01-30T05:41:41;13.98;;;11.32;;
10335;SDS011;5213;53.548;9.930;2024-01-30T05:44:06;12.30;;;10.40;;
10335;SDS011;5213;53.548;9.930;2024-01-30T05:46:32;13.50;;;10.20;;
10335;SDS011;5213;53.548;9.930;2024-01-30T05:48:58;10.18;;;9.18;;
10335;SDS011;5213;53.548;9.930;2024-01-30T05:51:24;12.32;;;9.63;;
10335;SDS011;5213;53.548;9.930;2024-01-30T05:53:49;10.45;;;9.35;;
10335;SDS011;5213;53.548;9.930;2024-01-30T05:56:15;11.43;;;9.63;;
10335;SDS011;5213;53.548;9.930;2024-01-30T05:58:41;11.63;;;9.63;;
10335;SDS011;5213;53.548;9.930;2024-01-30T06:01:16;13.20;;;9.70;;
10335;SDS011;5213;53.548;9.930;2024-01-30T06:03:43;12.57;;;10.38;;
10335;SDS011;5213;53.548;9.930;2024-01-30T06:06:09;11.48;;;9.70;;
10335;SDS011;5213;53.548;9.930;2024-01-30T06:08:34;11.40;;;9.98;;
10335;SDS011;5213;53.548;9.930;2024-01-30T06:11:00;12.60;;;10.18;;
10335;SDS011;5213;53.548;9.930;2024-01-30T06:13:26;12.30;;;9.80;;
10335;SDS011;5213;53.548;9.930;2024-01-30T06:15:52;11.15;;;9.88;;
10335;SDS011;5213;53.548;9.930;2024-01-30T06:18:18;11.77;;;9.75;;
10335;SDS011;5213;53.548;9.930;2024-01-30T06:20:43;11.15;;;9.57;;
10335;SDS011;5213;53.548;9.930;2024-01-30T06:23:09;11.48;;;9.73;;
10335;SDS011;5213;53.548;9.930;2024-01-30T06:25:35;11.35;;;9.70;;
10335;SDS011;5213;53.548;9.930;2024-01-30T06:28:01;11.68;;;9.60;;
10335;SDS011;5213;53.548;9.930;2024-01-30T06:30:26;13.63;;;10.10;;
10335;SDS011;5213;53.548;9.930;2024-01-30T06:32:52;11.90;;;10.25;;
10335;SDS011;5213;53.548;9.930;2024-01-30T06:35:17;12.60;;;10.27;;
10335;SDS011;5213;53.548;9.930;2024-01-30T06:37:43;13.57;;;10.02;;
10335;SDS011;5213;53.548;9.930;2024-01-30T06:40:09;12.30;;;10.80;;
10335;SDS011;5213;53.548;9.930;2024-01-30T06:42:35;10.52;;;9.43;;
10335;SDS011;5213;53.548;9.930;2024-01-30T06:45:00;10.63;;;9.52;;
10335;SDS011;5213;53.548;9.930;2024-01-30T06:47:26;12.68;;;9.85;;
10335;SDS011;5213;53.548;9.930;2024-01-30T06:49:51;11.82;;;10.32;;
10335;SDS011;5213;53.548;9.930;2024-01-30T06:52:17;14.77;;;10.02;;
10335;SDS011;5213;53.548;9.930;2024-01-30T06:54:43;11.23;;;9.43;;
10335;SDS011;5213;53.548;9.930;2024-01-30T06:57:09;13.73;;;10.57;;
10335;SDS011;5213;53.548;9.930;2024-01-30T06:59:36;13.82;;;10.73;;
10335;SDS011;5213;53.548;9.930;2024-01-30T07:02:06;11.88;;;9.98;;
10335;SDS011;5213;53.548;9.930;2024-01-30T07:04:32;13.43;;;9.93;;
10335;SDS011;5213;53.548;9.930;2024-01-30T07:06:58;12.43;;;10.23;;
10335;SDS011;5213;53.548;9.930;2024-01-30T07:09:23;11.23;;;9.90;;
10335;SDS011;5213;53.548;9.930;2024-01-30T07:11:49;14.13;;;11.52;;
10335;SDS011;5213;53.548;9.930;2024-01-30T07:14:15;12.80;;;10.35;;
10335;SDS011;5213;53.548;9.930;2024-01-30T07:16:40;12.88;;;10.23;;
10335;SDS011;5213;53.548;9.930;2024-01-30T07:19:06;15.48;;;11.07;;
10335;SDS011;5213;53.548;9.930;2024-01-30T07:21:34;12.23;;;9.90;;
10335;SDS011;5213;53.548;9.930;2024-01-30T07:23:59;12.93;;;10.05;;
10335;SDS011;5213;53.548;9.930;2024-01-30T07:26:25;13.10;;;11.48;;
10335;SDS011;5213;53.548;9.930;2024-01-30T07:28:51;12.35;;;10.85;;
10335;SDS011;5213;53.548;9.930;2024-01-30T07:31:16;13.60;;;11.35;;
10335;SDS011;5213;53.548;9.930;2024-01-30T07:33:45;14.80;;;11.25;;
10335;SDS011;5213;53.548;9.930;2024-01-30T07:36:11;13.60;;;11.13;;
10335;SDS011;5213;53.548;9.930;2024-01-30T07:38:37;15.02;;;11.15;;
10335;SDS011;5213;53.548;9.930;2024-01-30T07:41:02;14.07;;;11.35;;
10335;SDS011;5213;53.548;9.930;2024-01-30T07:43:28;19.17;;;11.63;;
10335;SDS011;5213;53.548;9.930;2024-01-30T07:45:53;13.77;;;10.65;;
10335;SDS011;5213;53.548;9.930;2024-01-30T07:48:19;14.50;;;11.10;;
10335;SDS011;5213;53.548;9.930;2024-01-30T07:50:45;12.35;;;10.77;;
10335;SDS011;5213;53.548;9.930;2024-01-30T07:53:10;14.90;;;10.77;;
10335;SDS011;5213;53.548;9.930;2024-01-30T07:55:36;15.18;;;10.98;;
10335;SDS011;5213;53.548;9.930;2024-01-30T07:58:40;15.77;;;12.18;;
10335;SDS011;5213;53.548;9.930;2024-01-30T08:01:06;14.63;;;10.95;;
10335;SDS011;5213;53.548;9.930;2024-01-30T08:03:31;14.27;;;11.50;;
10335;SDS011;5213;53.548;9.930;2024-01-30T08:05:57;17.13;;;11.82;;
10335;SDS011;5213;53.548;9.930;2024-01-30T08:08:23;14.23;;;11.00;;
10335;SDS011;5213;53.548;9.930;2024-01-30T08:10:48;16.65;;;11.40;;
10335;SDS011;5213;53.548;9.930;2024-01-30T08:13:14;15.18;;;10.98;;
10335;SDS011;5213;53.548;9.930;2024-01-30T08:15:40;12.63;;;11.25;;
10335;SDS011;5213;53.548;9.930;2024-01-30T08:18:06;13.95;;;10.95;;
10335;SDS011;5213;53.548;9.930;2024-01-30T08:20:32;13.95;;;10.65;;
10335;SDS011;5213;53.548;9.930;2024-01-30T08:22:57;13.05;;;11.40;;
10335;SDS011;5213;53.548;9.930;2024-01-30T08:25:25;12.50;;;11.05;;
10335;SDS011;5213;53.548;9.930;2024-01-30T08:27:51;13.63;;;11.25;;
10335;SDS011;5213;53.548;9.930;2024-01-30T08:30:16;13.45;;;11.13;;
10335;SDS011;5213;53.548;9.930;2024-01-30T08:32:42;15.23;;;11.00;;
10335;SDS011;5213;53.548;9.930;2024-01-30T08:35:08;15.88;;;10.75;;
10335;SDS011;5213;53.548;9.930;2024-01-30T08:37:33;14.52;;;11.15;;
10335;SDS011;5213;53.548;9.930;2024-01-30T08:39:59;12.02;;;10.73;;
10335;SDS011;5213;53.548;9.930;2024-01-30T08:42:26;12.57;;;10.82;;
10335;SDS011;5213;53.548;9.930;2024-01-30T08:44:52;11.82;;;10.57;;
10335;SDS011;5213;53.548;9.930;2024-01-30T08:47:18;15.68;;;11.35;;
10335;SDS011;5213;53.548;9.930;2024-01-30T08:49:44;13.38;;;11.52;;
10335;SDS011;5213;53.548;9.930;2024-01-30T08:52:10;13.80;;;11.90;;
10335;SDS011;5213;53.548;9.930;2024-01-30T08:54:36;14.48;;;11.00;;
10335;SDS011;5213;53.548;9.930;2024-01-30T08:57:02;13.60;;;10.75;;
10335;SDS011;5213;53.548;9.930;2024-01-30T08:59:29;13.43;;;10.70;;
10335;SDS011;5213;53.548;9.930;2024-01-30T09:01:55;12.55;;;11.07;;
10335;SDS011;5213;53.548;9.930;2024-01-30T09:04:22;13.68;;;10.85;;
10335;SDS011;5213;53.548;9.930;2024-01-30T09:06:48;13.30;;;11.60;;
10335;SDS011;5213;53.548;9.930;2024-01-30T09:09:14;12.38;;;10.93;;
10335;SDS011;5213;53.548;9.930;2024-01-30T09:11:40;11.95;;;10.70;;
10335;SDS011;5213;53.548;9.930;2024-01-30T09:14:06;16.23;;;11.68;;
10335;SDS011;5213;53.548;9.930;2024-01-30T09:16:31;15.38;;;11.25;;
10335;SDS011;5213;53.548;9.930;2024-01-30T09:18:57;12.90;;;10.75;;
10335;SDS011;5213;53.548;9.930;2024-01-30T09:21:23;12.65;;;11.18;;
10335;SDS011;5213;53.548;9.930;2024-01-30T09:23:48;12.23;;;10.63;;
10335;SDS011;5213;53.548;9.930;2024-01-30T09:26:14;14.38;;;11.52;;
10335;SDS011;5213;53.548;9.930;2024-01-30T09:28:40;13.43;;;10.95;;
10335;SDS011;5213;53.548;9.930;2024-01-30T09:31:10;12.15;;;10.85;;
10335;SDS011;5213;53.548;9.930;2024-01-30T09:33:37;15.38;;;11.35;;
10335;SDS011;5213;53.548;9.930;2024-01-30T09:36:04;13.38;;;10.55;;
10335;SDS011;5213;53.548;9.930;2024-01-30T09:38:30;13.02;;;10.98;;
10335;SDS011;5213;53.548;9.930;2024-01-30T09:40:56;14.80;;;11.48;;
10335;SDS011;5213;53.548;9.930;2024-01-30T09:43:29;14.48;;;11.18;;
10335;SDS011;5213;53.548;9.930;2024-01-30T09:45:59;13.60;;;11.20;;
10335;SDS011;5213;53.548;9.930;2024-01-30T09:48:27;12.77;;;11.43;;
10335;SDS011;5213;53.548;9.930;2024-01-30T09:50:54;15.23;;;11.43;;
10335;SDS011;5213;53.548;9.930;2024-01-30T09:53:22;15.38;;;12.05;;
10335;SDS011;5213;53.548;9.930;2024-01-30T09:55:48;16.25;;;11.55;;
10335;SDS011;5213;53.548;9.930;2024-01-30T09:58:16;13.32;;;11.35;;
10335;SDS011;5213;53.548;9.930;2024-01-30T10:00:42;13.70;;;10.88;;
10335;SDS011;5213;53.548;9.930;2024-01-30T10:03:07;13.95;;;11.35;;
10335;SDS011;5213;53.548;9.930;2024-01-30T10:05:34;12.68;;;11.15;;
10335;SDS011;5213;53.548;9.930;2024-01-30T10:08:05;14.35;;;10.98;;
10335;SDS011;5213;53.548;9.930;2024-01-30T10:10:31;15.63;;;11.07;;
10335;SDS011;5213;53.548;9.930;2024-01-30T10:12:57;14.73;;;11.35;;
10335;SDS011;5213;53.548;9.930;2024-01-30T10:15:22;13.35;;;10.82;;
10335;SDS011;5213;53.548;9.930;2024-01-30T10:17:49;17.30;;;11.25;;
10335;SDS011;5213;53.548;9.930;2024-01-30T10:20:14;13.40;;;11.57;;
10335;SDS011;5213;53.548;9.930;2024-01-30T10:22:43;14.57;;;12.38;;
10335;SDS011;5213;53.548;9.930;2024-01-30T10:25:10;15.25;;;12.40;;
10335;SDS011;5213;53.548;9.930;2024-01-30T10:27:36;16.13;;;11.77;;
10335;SDS011;5213;53.548;9.930;2024-01-30T10:30:01;13.77;;;11.20;;
10335;SDS011;5213;53.548;9.930;2024-01-30T10:32:29;12.82;;;10.85;;
10335;SDS011;5213;53.548;9.930;2024-01-30T10:34:54;13.88;;;11.45;;
10335;SDS011;5213;53.548;9.930;2024-01-30T10:37:20;17.52;;;11.93;;
10335;SDS011;5213;53.548;9.930;2024-01-30T10:39:49;15.65;;;11.95;;
10335;SDS011;5213;53.548;9.930;2024-01-30T10:42:18;14.63;;;11.40;;
10335;SDS011;5213;53.548;9.930;2024-01-30T10:44:56;15.57;;;13.25;;
10335;SDS011;5213;53.548;9.930;2024-01-30T10:47:28;17.77;;;12.07;;
10335;SDS011;5213;53.548;9.930;2024-01-30T10:49:55;13.68;;;11.40;;
10335;SDS011;5213;53.548;9.930;2024-01-30T10:52:26;13.30;;;11.30;;
10335;SDS011;5213;53.548;9.930;2024-01-30T10:54:53;29.80;;;15.77;;
10335;SDS011;5213;53.548;9.930;2024-01-30T10:57:19;14.48;;;11.85;;
10335;SDS011;5213;53.548;9.930;2024-01-30T10:59:48;18.85;;;12.27;;
10335;SDS011;5213;53.548;9.930;2024-01-30T11:02:14;13.65;;;11.30;;
10335;SDS011;5213;53.548;9.930;2024-01-30T11:04:41;18.50;;;12.25;;
10335;SDS011;5213;53.548;9.930;2024-01-30T11:07:24;13.82;;;11.40;;
10335;SDS011;5213;53.548;9.930;2024-01-30T11:09:59;12.93;;;11.15;;
10335;SDS011;5213;53.548;9.930;2024-01-30T11:12:28;15.35;;;11.13;;
10335;SDS011;5213;53.548;9.930;2024-01-30T11:15:10;14.85;;;11.98;;
10335;SDS011;5213;53.548;9.930;2024-01-30T11:17:42;16.20;;;11.60;;
10335;SDS011;5213;53.548;9.930;2024-01-30T11:20:30;15.80;;;10.85;;
10335;SDS011;5213;53.548;9.930;2024-01-30T11:22:56;14.30;;;11.23;;
10335;SDS011;5213;53.548;9.930;2024-01-30T11:25:23;15.07;;;11.30;;
10335;SDS011;5213;53.548;9.930;2024-01-30T11:27:50;14.50;;;11.20;;
10335;SDS011;5213;53.548;9.930;2024-01-30T11:30:27;17.17;;;11.20;;
10335;SDS011;5213;53.548;9.930;2024-01-30T11:33:09;16.60;;;10.80;;
10335;SDS011;5213;53.548;9.930;2024-01-30T11:35:37;13.07;;;10.98;;
10335;SDS011;5213;53.548;9.930;2024-01-30T11:38:04;12.20;;;11.00;;
10335;SDS011;5213;53.548;9.930;2024-01-30T11:40:32;17.58;;;11.90;;
10335;SDS011;5213;53.548;9.930;2024-01-30T11:42:59;12.65;;;10.98;;
10335;SDS011;5213;53.548;9.930;2024-01-30T11:45:26;12.32;;;9.40;;
10335;SDS011;5213;53.548;9.930;2024-01-30T11:47:53;12.50;;;10.05;;
10335;SDS011;5213;53.548;9.930;2024-01-30T11:50:19;12.00;;;9.73;;
10335;SDS011;5213;53.548;9.930;2024-01-30T11:52:45;11.98;;;9.18;;
10335;SDS011;5213;53.548;9.930;2024-01-30T11:55:11;11.55;;;9.60;;
10335;SDS011;5213;53.548;9.930;2024-01-30T11:57:38;10.88;;;8.98;;
10335;SDS011;5213;53.548;9.930;2024-01-30T12:00:04;10.23;;;9.18;;
10335;SDS011;5213;53.548;9.930;2024-01-30T12:02:38;11.13;;;8.82;;
10335;SDS011;5213;53.548;9.930;2024-01-30T12:05:04;11.45;;;8.88;;
10335;SDS011;5213;53.548;9.930;2024-01-30T12:07:31;11.30;;;8.70;;
10335;SDS011;5213;53.548;9.930;2024-01-30T12:09:57;9.82;;;8.60;;
10335;SDS011;5213;53.548;9.930;2024-01-30T12:12:26;11.93;;;8.82;;
10335;SDS011;5213;53.548;9.930;2024-01-30T12:14:52;10.57;;;8.43;;
10335;SDS011;5213;53.548;9.930;2024-01-30T12:20:04;13.00;;;9.38;;
10335;SDS011;5213;53.548;9.930;2024-01-30T12:22:35;10.93;;;8.25;;
10335;SDS011;5213;53.548;9.930;2024-01-30T12:25:15;10.05;;;8.50;;
10335;SDS011;5213;53.548;9.930;2024-01-30T12:27:42;13.55;;;8.52;;
10335;SDS011;5213;53.548;9.930;2024-01-30T12:30:10;9.75;;;8.73;;
10335;SDS011;5213;53.548;9.930;2024-01-30T12:32:39;13.82;;;8.70;;
10335;SDS011;5213;53.548;9.930;2024-01-30T12:35:14;10.98;;;9.05;;
10335;SDS011;5213;53.548;9.930;2024-01-30T12:37:41;12.05;;;8.73;;
10335;SDS011;5213;53.548;9.930;2024-01-30T12:40:08;9.63;;;8.50;;
10335;SDS011;5213;53.548;9.930;2024-01-30T12:42:35;12.93;;;8.73;;
10335;SDS011;5213;53.548;9.930;2024-01-30T12:45:04;11.70;;;9.00;;
10335;SDS011;5213;53.548;9.930;2024-01-30T12:47:30;10.48;;;8.32;;
10335;SDS011;5213;53.548;9.930;2024-01-30T12:49:59;11.32;;;8.93;;
10335;SDS011;5213;53.548;9.930;2024-01-30T12:52:25;9.55;;;8.60;;
10335;SDS011;5213;53.548;9.930;2024-01-30T12:54:51;11.73;;;8.68;;
10335;SDS011;5213;53.548;9.930;2024-01-30T12:57:17;11.40;;;8.48;;
10335;SDS011;5213;53.548;9.930;2024-01-30T12:59:43;9.57;;;8.65;;
10335;SDS011;5213;53.548;9.930;2024-01-30T13:02:10;11.40;;;8.60;;
10335;SDS011;5213;53.548;9.930;2024-01-30T13:04:39;10.63;;;8.35;;
10335;SDS011;5213;53.548;9.930;2024-01-30T13:07:05;9.40;;;7.82;;
10335;SDS011;5213;53.548;9.930;2024-01-30T13:09:31;10.35;;;9.27;;
10335;SDS011;5213;53.548;9.930;2024-01-30T13:11:57;9.80;;;8.80;;
10335;SDS011;5213;53.548;9.930;2024-01-30T13:14:23;9.68;;;8.43;;
10335;SDS011;5213;53.548;9.930;2024-01-30T13:16:49;9.52;;;8.52;;
10335;SDS011;5213;53.548;9.930;2024-01-30T13:19:15;9.80;;;8.43;;
10335;SDS011;5213;53.548;9.930;2024-01-30T13:21:41;11.65;;;9.30;;
10335;SDS011;5213;53.548;9.930;2024-01-30T13:24:07;13.73;;;8.48;;
10335;SDS011;5213;53.548;9.930;2024-01-30T13:26:33;10.05;;;8.93;;
10335;SDS011;5213;53.548;9.930;2024-01-30T13:28:58;13.68;;;9.30;;
10335;SDS011;5213;53.548;9.930;2024-01-30T13:31:24;10.68;;;9.57;;
10335;SDS011;5213;53.548;9.930;2024-01-30T13:33:50;13.57;;;10.68;;
10335;SDS011;5213;53.548;9.930;2024-01-30T13:36:15;16.05;;;11.43;;
10335;SDS011;5213;53.548;9.930;2024-01-30T13:38:41;13.73;;;11.38;;
10335;SDS011;5213;53.548;9.930;2024-01-30T13:41:07;13.23;;;11.82;;
10335;SDS011;5213;53.548;9.930;2024-01-30T13:43:32;12.88;;;11.23;;
10335;SDS011;5213;53.548;9.930;2024-01-30T13:45:58;12.40;;;9.95;;
10335;SDS011;5213;53.548;9.930;2024-01-30T13:48:24;11.82;;;10.27;;
10335;SDS011;5213;53.548;9.930;2024-01-30T13:50:49;12.48;;;10.43;;
10335;SDS011;5213;53.548;9.930;2024-01-30T13:53:15;10.88;;;9.80;;
10335;SDS011;5213;53.548;9.930;2024-01-30T13:55:41;11.18;;;9.02;;
10335;SDS011;5213;53.548;9.930;2024-01-30T13:58:06;11.63;;;9.38;;
10335;SDS011;5213;53.548;9.930;2024-01-30T14:00:33;14.13;;;9.13;;
10335;SDS011;5213;53.548;9.930;2024-01-30T14:02:59;10.43;;;8.63;;
10335;SDS011;5213;53.548;9.930;2024-01-30T14:05:25;12.48;;;9.07;;
10335;SDS011;5213;53.548;9.930;2024-01-30T14:07:53;12.82;;;9.07;;
10335;SDS011;5213;53.548;9.930;2024-01-30T14:10:19;9.95;;;8.73;;
10335;SDS011;5213;53.548;9.930;2024-01-30T14:12:45;11.02;;;9.27;;
10335;SDS011;5213;53.548;9.930;2024-01-30T14:15:13;12.88;;;9.20;;
10335;SDS011;5213;53.548;9.930;2024-01-30T14:17:45;12.52;;;8.93;;
10335;SDS011;5213;53.548;9.930;2024-01-30T14:20:13;12.40;;;8.73;;
10335;SDS011;5213;53.548;9.930;2024-01-30T14:22:39;12.38;;;9.15;;
10335;SDS011;5213;53.548;9.930;2024-01-30T14:25:05;11.70;;;9.13;;
10335;SDS011;5213;53.548;9.930;2024-01-30T14:27:31;11.95;;;9.38;;
10335;SDS011;5213;53.548;9.930;2024-01-30T14:29:57;14.18;;;9.57;;
10335;SDS011;5213;53.548;9.930;2024-01-30T14:32:23;9.48;;;8.48;;
10335;SDS011;5213;53.548;9.930;2024-01-30T14:34:49;12.73;;;9.35;;
10335;SDS011;5213;53.548;9.930;2024-01-30T14:37:16;10.90;;;8.90;;
10335;SDS011;5213;53.548;9.930;2024-01-30T14:39:41;13.20;;;9.23;;
10335;SDS011;5213;53.548;9.930;2024-01-30T14:42:07;9.82;;;8.82;;
10335;SDS011;5213;53.548;9.930;2024-01-30T14:44:33;9.77;;;8.77;;